createdAt,value
2023-02-08T00:00:37.049Z,-5.64
2023-02-08T00:03:43.514Z,-5.70
2023-02-08T00:06:49.576Z,-5.66
2023-02-08T00:09:56.326Z,-5.40
2023-02-08T00:13:02.631Z,-5.34
2023-02-08T00:16:09.601Z,-5.52
2023-02-08T00:19:15.565Z,-5.66
2023-02-08T00:22:21.810Z,-5.55
2023-02-08T00:25:26.930Z,-5.19
2023-02-08T00:28:34.697Z,-5.32
2023-02-08T00:31:40.372Z,-5.28
2023-02-08T00:34:47.186Z,-5.29
2023-02-08T00:37:53.040Z,-5.37
2023-02-08T00:40:59.568Z,-5.44
2023-02-08T00:44:04.360Z,-5.35
2023-02-08T00:47:10.270Z,-5.45
2023-02-08T00:50:16.455Z,-5.32
2023-02-08T00:53:22.505Z,-5.24
2023-02-08T00:56:29.088Z,-5.44
2023-02-08T00:59:34.798Z,-5.45
2023-02-08T01:02:33.567Z,-5.67
2023-02-08T01:05:39.718Z,-5.73
2023-02-08T01:08:44.613Z,-5.66
2023-02-08T01:11:52.618Z,-5.64
2023-02-08T01:14:58.966Z,-5.59
2023-02-08T01:18:09.671Z,-5.56
2023-02-08T01:21:28.092Z,-5.62
2023-02-08T01:24:33.528Z,-5.64
2023-02-08T01:27:39.939Z,-5.66
2023-02-08T01:30:45.596Z,-5.76
2023-02-08T01:33:51.444Z,-5.70
2023-02-08T01:36:59.067Z,-5.81
2023-02-08T01:40:05.602Z,-5.84
2023-02-08T01:43:11.326Z,-5.89
2023-02-08T01:46:17.187Z,-5.74
2023-02-08T01:49:39.684Z,-5.65
2023-02-08T01:52:47.136Z,-5.83
2023-02-08T01:55:57.024Z,-5.75
2023-02-08T01:59:05.055Z,-6.06
2023-02-08T02:02:11.482Z,-5.86
2023-02-08T02:05:18.316Z,-5.84
2023-02-08T02:08:25.751Z,-5.97
2023-02-08T02:11:30.433Z,-5.84
2023-02-08T02:14:35.740Z,-5.93
2023-02-08T02:17:41.183Z,-6.01
2023-02-08T02:21:37.173Z,-5.99
2023-02-08T02:25:22.529Z,-6.06
2023-02-08T02:29:02.984Z,-5.96
2023-02-08T02:32:42.875Z,-5.90
2023-02-08T02:36:22.425Z,-6.06
2023-02-08T02:39:45.808Z,-5.88
2023-02-08T02:43:21.775Z,-5.97
2023-02-08T02:46:37.928Z,-6.09
2023-02-08T02:50:03.210Z,-6.89
2023-02-08T02:53:17.646Z,-6.79
2023-02-08T02:56:38.108Z,-6.79
2023-02-08T02:59:43.689Z,-5.46
2023-02-08T03:02:51.905Z,-5.67
2023-02-08T03:05:57.200Z,-6.00
2023-02-08T03:09:26.948Z,-6.37
2023-02-08T03:13:08.358Z,-6.46
2023-02-08T03:16:18.441Z,-6.46
2023-02-08T03:19:30.408Z,-6.73
2023-02-08T03:22:49.258Z,-6.92
2023-02-08T03:26:09.746Z,-7.18
2023-02-08T03:29:39.902Z,-7.07
2023-02-08T03:33:21.296Z,-7.15
2023-02-08T03:36:40.634Z,-7.17
2023-02-08T03:39:45.921Z,-7.34
2023-02-08T03:42:52.643Z,-7.32
2023-02-08T03:46:11.840Z,-7.24
2023-02-08T03:49:20.966Z,-7.27
2023-02-08T03:52:26.523Z,-7.10
2023-02-08T03:55:39.361Z,-7.39
2023-02-08T03:59:09.992Z,-7.26
2023-02-08T04:02:18.877Z,-7.29
2023-02-08T04:05:24.458Z,-7.18
2023-02-08T04:08:29.861Z,-7.32
2023-02-08T04:11:35.997Z,-7.53
2023-02-08T04:14:41.990Z,-7.55
2023-02-08T04:17:48.262Z,-7.58
2023-02-08T04:20:53.895Z,-7.46
2023-02-08T04:23:59.201Z,-7.58
2023-02-08T04:27:06.123Z,-7.63
2023-02-08T04:30:11.231Z,-7.59
2023-02-08T04:33:18.880Z,-7.37
2023-02-08T04:36:24.830Z,-7.27
2023-02-08T04:39:31.120Z,-7.34
2023-02-08T04:42:37.348Z,-7.65
2023-02-08T04:45:43.408Z,-7.59
2023-02-08T04:48:48.893Z,-7.73
2023-02-08T04:51:53.855Z,-7.68
2023-02-08T04:54:59.809Z,-7.64
2023-02-08T04:58:05.719Z,-7.66
2023-02-08T05:01:10.735Z,-7.67
2023-02-08T05:04:16.685Z,-7.75
2023-02-08T05:07:22.699Z,-7.78
2023-02-08T05:10:27.680Z,-7.93
2023-02-08T05:13:34.264Z,-7.73
2023-02-08T05:16:39.005Z,-7.72
2023-02-08T05:19:44.067Z,-7.83
2023-02-08T05:22:50.734Z,-7.78
2023-02-08T05:25:57.188Z,-7.56
2023-02-08T05:29:03.817Z,-7.86
2023-02-08T05:32:10.555Z,-7.79
2023-02-08T05:35:16.347Z,-7.79
2023-02-08T05:38:22.120Z,-7.97
2023-02-08T05:41:28.378Z,-7.77
2023-02-08T05:44:33.273Z,-7.80
2023-02-08T05:47:38.479Z,-7.73
2023-02-08T05:50:44.202Z,-7.72
2023-02-08T05:53:50.353Z,-7.69
2023-02-08T05:56:56.509Z,-7.51
2023-02-08T06:00:01.378Z,-7.36
2023-02-08T06:03:10.296Z,-7.33
2023-02-08T06:06:18.820Z,-7.07
2023-02-08T06:09:23.977Z,-7.09
2023-02-08T06:12:29.753Z,-7.00
2023-02-08T06:15:35.182Z,-6.89
2023-02-08T06:18:39.694Z,-6.70
2023-02-08T06:21:44.474Z,-6.67
2023-02-08T06:24:50.007Z,-6.62
2023-02-08T06:27:57.519Z,-6.52
2023-02-08T06:31:06.547Z,-6.59
2023-02-08T06:34:12.187Z,-6.44
2023-02-08T06:37:18.112Z,-6.49
2023-02-08T06:40:23.918Z,-6.14
2023-02-08T06:43:29.793Z,-6.33
2023-02-08T06:46:35.457Z,-6.32
2023-02-08T06:49:42.091Z,-6.32
2023-02-08T06:52:48.015Z,-5.95
2023-02-08T06:55:54.708Z,-5.93
2023-02-08T06:59:01.065Z,-5.76
2023-02-08T07:02:06.252Z,-5.64
2023-02-08T07:05:11.844Z,-5.65
2023-02-08T07:08:18.588Z,-5.62
2023-02-08T07:11:28.981Z,-5.24
2023-02-08T07:14:34.729Z,-5.31
2023-02-08T07:17:41.066Z,-5.27
2023-02-08T07:20:46.639Z,-5.30
2023-02-08T07:23:54.016Z,-5.31
2023-02-08T07:26:59.898Z,-5.07
2023-02-08T07:30:06.116Z,-5.09
2023-02-08T07:33:13.009Z,-4.89
2023-02-08T07:36:20.595Z,-5.05
2023-02-08T07:39:25.678Z,-4.98
2023-02-08T07:42:31.595Z,-4.94
2023-02-08T07:45:40.807Z,-4.91
2023-02-08T07:48:40.521Z,-5.06
2023-02-08T07:51:26.796Z,-4.98
2023-02-08T07:54:19.687Z,-4.99
2023-02-08T07:57:12.173Z,-4.89
2023-02-08T08:00:18.967Z,-4.68
2023-02-08T08:03:24.671Z,-4.66
2023-02-08T08:06:30.565Z,-4.84
2023-02-08T08:09:36.897Z,-4.51
2023-02-08T08:12:46.352Z,-4.49
2023-02-08T08:15:54.935Z,-4.33
2023-02-08T08:19:00.374Z,-4.15
2023-02-08T08:22:06.148Z,-4.25
2023-02-08T08:25:11.739Z,-3.98
2023-02-08T08:28:18.501Z,-3.98
2023-02-08T08:31:33.562Z,-4.50
2023-02-08T08:34:38.813Z,-4.55
2023-02-08T08:37:39.185Z,-4.12
2023-02-08T08:40:45.660Z,-4.17
2023-02-08T08:43:51.882Z,-4.00
2023-02-08T08:46:57.089Z,-3.99
2023-02-08T08:50:02.579Z,-4.05
2023-02-08T08:53:08.128Z,-3.62
2023-02-08T08:56:16.874Z,-3.73
2023-02-08T08:59:25.189Z,-3.86
2023-02-08T09:02:30.866Z,-3.73
2023-02-08T09:05:41.344Z,-3.76
2023-02-08T09:08:45.795Z,-3.83
2023-02-08T09:11:52.743Z,-3.75
2023-02-08T09:14:59.458Z,-3.45
2023-02-08T09:18:06.188Z,-3.53
2023-02-08T09:21:13.682Z,-3.39
2023-02-08T09:24:19.487Z,-3.60
2023-02-08T09:27:25.572Z,-3.35
2023-02-08T09:30:30.783Z,-3.05
2023-02-08T09:33:37.392Z,-3.17
2023-02-08T09:36:49.085Z,-3.21
2023-02-08T09:39:55.271Z,-2.65
2023-02-08T09:43:05.083Z,-3.04
2023-02-08T09:46:36.753Z,-3.21
2023-02-08T09:49:48.811Z,-2.94
2023-02-08T09:53:09.276Z,-2.66
2023-02-08T09:56:17.114Z,-2.73
2023-02-08T09:59:38.448Z,-2.64
2023-02-08T10:02:46.198Z,-2.62
2023-02-08T10:05:51.721Z,-2.41
2023-02-08T10:08:58.044Z,-2.81
2023-02-08T10:12:30.863Z,-2.82
2023-02-08T10:15:49.122Z,-2.79
2023-02-08T10:18:53.414Z,-2.52
2023-02-08T10:21:52.757Z,-2.59
2023-02-08T10:25:30.574Z,-2.52
2023-02-08T10:28:34.300Z,-2.35
2023-02-08T10:31:51.556Z,-2.72
2023-02-08T10:35:11.270Z,-2.93
2023-02-08T10:38:16.236Z,-2.90
2023-02-08T10:41:23.076Z,-2.43
2023-02-08T10:44:51.388Z,-2.26
2023-02-08T10:48:09.489Z,-2.04
2023-02-08T10:51:15.126Z,-2.23
2023-02-08T10:54:20.548Z,-2.14
2023-02-08T10:57:30.345Z,-2.17
2023-02-08T11:00:39.316Z,-1.99
2023-02-08T11:03:46.604Z,-2.09
2023-02-08T11:06:56.774Z,-1.95
2023-02-08T11:10:03.471Z,-1.76
2023-02-08T11:13:36.442Z,-1.74
2023-02-08T11:16:42.587Z,-1.92
2023-02-08T11:19:54.109Z,-1.70
2023-02-08T11:23:00.064Z,-1.78
2023-02-08T11:26:06.076Z,-1.81
2023-02-08T11:29:33.755Z,-1.95
2023-02-08T11:32:42.177Z,-1.91
2023-02-08T11:35:48.252Z,-2.00
2023-02-08T11:38:49.983Z,-2.17
2023-02-08T11:41:58.651Z,-2.08
2023-02-08T11:45:03.818Z,-1.68
2023-02-08T11:48:10.879Z,-1.57
2023-02-08T11:51:18.041Z,-1.55
2023-02-08T11:54:27.317Z,-1.36
2023-02-08T11:57:35.670Z,-1.43
2023-02-08T12:00:43.215Z,-1.41
2023-02-08T12:03:57.544Z,-1.36
2023-02-08T12:07:13.735Z,-1.32
2023-02-08T12:10:35.716Z,-1.56
2023-02-08T12:14:13.978Z,-1.81
2023-02-08T12:17:50.515Z,-1.83
2023-02-08T12:21:03.157Z,-1.66
2023-02-08T12:24:22.646Z,-1.38
2023-02-08T12:27:42.242Z,-1.31
2023-02-08T12:31:01.696Z,-1.18
2023-02-08T12:34:26.300Z,-1.04
2023-02-08T12:38:06.023Z,-1.01
2023-02-08T12:41:32.367Z,-1.43
2023-02-08T12:45:22.831Z,-1.47
2023-02-08T12:48:57.749Z,-1.51
2023-02-08T12:52:30.635Z,-1.51
2023-02-08T12:55:47.908Z,-1.46
2023-02-08T12:59:13.825Z,-1.36
2023-02-08T13:02:29.764Z,-1.21
2023-02-08T13:05:36.148Z,-1.36
2023-02-08T13:08:57.037Z,-1.49
2023-02-08T13:12:08.649Z,-1.33
2023-02-08T13:15:35.892Z,-1.19
2023-02-08T13:18:52.014Z,-1.45
2023-02-08T13:21:57.617Z,-1.32
2023-02-08T13:25:08.012Z,-1.34
2023-02-08T13:28:21.934Z,-1.53
2023-02-08T13:31:31.141Z,-1.62
2023-02-08T13:34:54.264Z,-1.68
2023-02-08T13:38:06.458Z,-1.61
2023-02-08T13:41:24.351Z,-1.55
2023-02-08T13:44:37.298Z,-1.60
2023-02-08T13:47:48.575Z,-1.83
2023-02-08T13:51:04.429Z,-1.76
2023-02-08T13:54:20.156Z,-1.37
2023-02-08T13:58:07.782Z,-1.84
2023-02-08T14:01:16.380Z,-1.92
2023-02-08T14:04:30.002Z,-1.93
2023-02-08T14:07:43.158Z,-1.87
2023-02-08T14:10:55.424Z,-1.82
2023-02-08T14:14:10.685Z,-1.90
2023-02-08T14:17:38.893Z,-1.91
2023-02-08T14:20:51.192Z,-1.90
2023-02-08T14:23:57.712Z,-1.84
2023-02-08T14:27:02.335Z,-1.68
2023-02-08T14:30:32.367Z,-2.07
2023-02-08T14:33:54.733Z,-2.21
2023-02-08T14:37:00.592Z,-2.18
2023-02-08T14:40:05.959Z,-2.27
2023-02-08T14:43:21.368Z,-2.12
2023-02-08T14:46:53.059Z,-2.32
2023-02-08T14:49:59.376Z,-2.39
2023-02-08T14:53:35.894Z,-2.43
2023-02-08T14:56:50.745Z,-2.47
2023-02-08T14:59:50.291Z,-2.51
2023-02-08T15:02:43.946Z,-2.50
2023-02-08T15:05:52.484Z,-2.55
2023-02-08T15:09:00.105Z,-2.62
2023-02-08T15:12:18.668Z,-2.53
2023-02-08T15:15:44.898Z,-2.62
2023-02-08T15:18:51.518Z,-2.60
2023-02-08T15:21:58.000Z,-2.69
2023-02-08T15:25:12.439Z,-2.57
2023-02-08T15:28:33.085Z,-2.51
2023-02-08T15:31:47.160Z,-2.18
2023-02-08T15:34:54.924Z,-2.79
2023-02-08T15:38:01.830Z,-2.83
2023-02-08T15:41:26.416Z,-2.77
2023-02-08T15:44:44.225Z,-2.84
2023-02-08T15:47:51.601Z,-2.67
2023-02-08T15:50:57.586Z,-2.80
2023-02-08T15:54:08.864Z,-2.83
2023-02-08T15:57:20.797Z,-2.62
2023-02-08T16:00:39.841Z,-2.78
2023-02-08T16:03:45.994Z,-2.88
2023-02-08T16:06:55.278Z,-2.89
2023-02-08T16:10:02.286Z,-2.92
2023-02-08T16:13:13.644Z,-2.98
2023-02-08T16:16:40.730Z,-2.93
2023-02-08T16:19:47.960Z,-2.94
2023-02-08T16:22:53.742Z,-2.88
2023-02-08T16:26:00.124Z,-2.98
2023-02-08T16:29:13.490Z,-2.96
2023-02-08T16:32:21.543Z,-3.04
2023-02-08T16:35:29.504Z,-3.08
2023-02-08T16:38:37.317Z,-3.07
2023-02-08T16:41:43.790Z,-3.02
2023-02-08T16:44:51.078Z,-3.20
2023-02-08T16:48:17.514Z,-3.14
2023-02-08T16:51:12.730Z,-2.92
2023-02-08T16:54:20.315Z,-2.64
2023-02-08T16:57:26.683Z,-2.67
2023-02-08T17:00:44.727Z,-3.17
2023-02-08T17:03:50.943Z,-3.44
2023-02-08T17:06:58.793Z,-3.62
2023-02-08T17:10:04.222Z,-3.50
2023-02-08T17:13:24.276Z,-3.57
2023-02-08T17:16:16.016Z,-3.55
2023-02-08T17:19:21.704Z,-3.07
2023-02-08T17:22:27.900Z,-2.90
2023-02-08T17:25:32.972Z,-3.27
2023-02-08T17:28:41.122Z,-3.36
2023-02-08T17:31:48.198Z,-3.48
2023-02-08T17:34:54.233Z,-3.72
2023-02-08T17:38:02.282Z,-3.67
2023-02-08T17:41:01.491Z,-3.69
2023-02-08T17:44:08.420Z,-3.63
2023-02-08T17:47:14.088Z,-3.58
2023-02-08T17:50:20.725Z,-3.43
2023-02-08T17:53:26.874Z,-3.62
2023-02-08T17:56:41.288Z,-3.66
2023-02-08T17:59:46.156Z,-3.84
2023-02-08T18:02:53.157Z,-3.40
2023-02-08T18:05:58.853Z,-3.25
2023-02-08T18:09:11.064Z,-3.63
2023-02-08T18:12:17.478Z,-3.84
2023-02-08T18:15:27.147Z,-3.75
2023-02-08T18:18:32.369Z,-3.72
2023-02-08T18:21:39.883Z,-3.76
2023-02-08T18:24:46.345Z,-3.69
2023-02-08T18:27:52.332Z,-3.74
2023-02-08T18:30:58.608Z,-3.70
2023-02-08T18:34:04.732Z,-3.78
2023-02-08T18:37:10.177Z,-3.79
2023-02-08T18:40:16.276Z,-3.71
2023-02-08T18:43:22.369Z,-3.73
2023-02-08T18:46:30.197Z,-3.75
2023-02-08T18:49:36.698Z,-3.72
2023-02-08T18:52:42.220Z,-3.82
2023-02-08T18:55:34.476Z,-3.84
2023-02-08T18:58:40.884Z,-3.86
2023-02-08T19:01:46.925Z,-3.88
2023-02-08T19:04:54.093Z,-3.96
2023-02-08T19:08:00.251Z,-4.00
2023-02-08T19:11:06.989Z,-3.75
2023-02-08T19:14:14.022Z,-3.90
2023-02-08T19:17:18.972Z,-3.80
2023-02-08T19:20:26.127Z,-3.89
2023-02-08T19:23:32.216Z,-3.82
2023-02-08T19:26:40.456Z,-4.03
2023-02-08T19:29:45.478Z,-3.95
2023-02-08T19:32:51.616Z,-3.99
2023-02-08T19:35:58.438Z,-3.84
2023-02-08T19:39:04.909Z,-4.08
2023-02-08T19:42:10.475Z,-3.93
2023-02-08T19:45:15.586Z,-3.91
2023-02-08T19:48:16.179Z,-3.83
2023-02-08T19:51:22.164Z,-4.07
2023-02-08T19:54:29.584Z,-4.21
2023-02-08T19:57:35.274Z,-4.46
2023-02-08T20:00:34.816Z,-4.25
2023-02-08T20:03:41.021Z,-4.51
2023-02-08T20:06:52.367Z,-4.33
2023-02-08T20:09:58.034Z,-4.43
2023-02-08T20:13:03.493Z,-4.44
2023-02-08T20:16:12.090Z,-4.54
2023-02-08T20:19:19.711Z,-4.63
2023-02-08T20:22:26.021Z,-4.37
2023-02-08T20:25:31.489Z,-4.49
2023-02-08T20:28:37.142Z,-4.73
2023-02-08T20:31:45.428Z,-4.89
2023-02-08T20:34:59.372Z,-4.81
2023-02-08T20:38:00.040Z,-4.76
2023-02-08T20:41:06.457Z,-4.88
2023-02-08T20:44:11.740Z,-4.99
2023-02-08T20:47:18.423Z,-4.87
2023-02-08T20:50:24.857Z,-4.77
2023-02-08T20:53:30.949Z,-4.94
2023-02-08T20:56:42.762Z,-5.11
2023-02-08T20:59:47.766Z,-5.09
2023-02-08T21:02:53.639Z,-5.01
2023-02-08T21:06:00.058Z,-4.69
2023-02-08T21:09:06.178Z,-4.79
2023-02-08T21:12:12.920Z,-5.05
2023-02-08T21:15:18.385Z,-4.83
2023-02-08T21:18:24.200Z,-4.87
2023-02-08T21:21:31.162Z,-4.92
2023-02-08T21:24:37.845Z,-4.83
2023-02-08T21:27:43.674Z,-4.79
2023-02-08T21:30:49.698Z,-4.61
2023-02-08T21:33:56.892Z,-4.77
2023-02-08T21:37:03.229Z,-5.04
2023-02-08T21:40:02.063Z,-4.92
2023-02-08T21:43:08.157Z,-5.07
2023-02-08T21:46:18.674Z,-4.99
2023-02-08T21:49:41.811Z,-5.01
2023-02-08T21:53:04.936Z,-4.67
2023-02-08T21:56:10.370Z,-4.93
2023-02-08T21:59:16.226Z,-5.09
2023-02-08T22:02:34.929Z,-5.16
2023-02-08T22:05:57.557Z,-5.02
2023-02-08T22:09:03.814Z,-5.13
2023-02-08T22:12:08.732Z,-5.17
2023-02-08T22:15:14.331Z,-5.41
2023-02-08T22:18:20.184Z,-5.30
2023-02-08T22:21:24.694Z,-5.42
2023-02-08T22:24:29.864Z,-5.27
2023-02-08T22:27:36.178Z,-5.17
2023-02-08T22:30:43.786Z,-5.25
2023-02-08T22:33:49.466Z,-5.32
2023-02-08T22:36:55.450Z,-5.34
2023-02-08T22:40:00.223Z,-5.29
2023-02-08T22:43:06.362Z,-5.33
2023-02-08T22:46:15.312Z,-5.41
2023-02-08T22:49:20.402Z,-5.44
2023-02-08T22:52:26.062Z,-5.07
2023-02-08T22:55:33.662Z,-5.37
2023-02-08T22:58:39.590Z,-5.29
2023-02-08T23:01:44.733Z,-5.35
2023-02-08T23:04:51.335Z,-5.24
2023-02-08T23:07:57.805Z,-5.15
2023-02-08T23:11:03.161Z,-5.37
2023-02-08T23:14:09.462Z,-5.41
2023-02-08T23:17:15.670Z,-5.75
2023-02-08T23:20:20.742Z,-5.43
2023-02-08T23:23:26.372Z,-5.67
2023-02-08T23:26:34.503Z,-5.67
2023-02-08T23:29:40.657Z,-5.65
2023-02-08T23:32:46.563Z,-5.55
2023-02-08T23:35:56.298Z,-5.70
2023-02-08T23:39:02.442Z,-5.57
2023-02-08T23:42:10.669Z,-5.52
2023-02-08T23:45:17.014Z,-5.29
2023-02-08T23:48:22.549Z,-5.29
2023-02-08T23:51:22.447Z,-5.33
2023-02-08T23:54:15.571Z,-5.26
2023-02-08T23:57:14.864Z,-5.62
